sensor_id;sensor_type;location;lat;lon;timestamp;P1;durP1;ratioP1;P2;durP2;ratioP2
23670;SDS011;12012;51.998;7.614;2023-03-21T00:01:54;27.73;;;12.93;;
23670;SDS011;12012;51.998;7.614;2023-03-21T00:04:24;28.58;;;13.13;;
23670;SDS011;12012;51.998;7.614;2023-03-21T00:06:50;29.88;;;13.98;;
23670;SDS011;12012;51.998;7.614;2023-03-21T00:09:17;26.80;;;13.50;;
23670;SDS011;12012;51.998;7.614;2023-03-21T00:11:43;25.77;;;13.35;;
23670;SDS011;12012;51.998;7.614;2023-03-21T00:14:09;31.42;;;13.65;;
23670;SDS011;12012;51.998;7.614;2023-03-21T00:16:38;26.20;;;13.23;;
23670;SDS011;12012;51.998;7.614;2023-03-21T00:19:03;31.52;;;14.55;;
23670;SDS011;12012;51.998;7.614;2023-03-21T00:21:30;26.58;;;13.25;;
23670;SDS011;12012;51.998;7.614;2023-03-21T00:23:57;21.48;;;12.55;;
23670;SDS011;12012;51.998;7.614;2023-03-21T00:26:24;31.02;;;13.80;;
23670;SDS011;12012;51.998;7.614;2023-03-21T00:28:50;27.30;;;13.88;;
23670;SDS011;12012;51.998;7.614;2023-03-21T00:31:18;22.77;;;12.60;;
23670;SDS011;12012;51.998;7.614;2023-03-21T00:33:43;32.72;;;12.98;;
23670;SDS011;12012;51.998;7.614;2023-03-21T00:36:09;27.42;;;14.15;;
23670;SDS011;12012;51.998;7.614;2023-03-21T00:38:36;33.05;;;14.63;;
23670;SDS011;12012;51.998;7.614;2023-03-21T00:41:03;30.45;;;14.60;;
23670;SDS011;12012;51.998;7.614;2023-03-21T00:43:30;28.55;;;13.93;;
23670;SDS011;12012;51.998;7.614;2023-03-21T00:45:57;27.83;;;15.10;;
23670;SDS011;12012;51.998;7.614;2023-03-21T00:48:23;34.00;;;14.50;;
23670;SDS011;12012;51.998;7.614;2023-03-21T00:50:50;32.22;;;14.35;;
23670;SDS011;12012;51.998;7.614;2023-03-21T00:53:18;27.88;;;15.52;;
23670;SDS011;12012;51.998;7.614;2023-03-21T00:55:44;28.63;;;14.68;;
23670;SDS011;12012;51.998;7.614;2023-03-21T00:58:10;34.38;;;15.32;;
23670;SDS011;12012;51.998;7.614;2023-03-21T01:00:36;33.20;;;16.30;;
23670;SDS011;12012;51.998;7.614;2023-03-21T01:03:03;27.50;;;15.80;;
23670;SDS011;12012;51.998;7.614;2023-03-21T01:05:33;24.52;;;13.52;;
23670;SDS011;12012;51.998;7.614;2023-03-21T01:08:20;24.70;;;13.65;;
23670;SDS011;12012;51.998;7.614;2023-03-21T01:10:47;30.52;;;15.68;;
23670;SDS011;12012;51.998;7.614;2023-03-21T01:13:15;32.40;;;15.32;;
23670;SDS011;12012;51.998;7.614;2023-03-21T01:15:43;29.45;;;15.18;;
23670;SDS011;12012;51.998;7.614;2023-03-21T01:18:11;33.20;;;16.48;;
23670;SDS011;12012;51.998;7.614;2023-03-21T01:20:39;33.78;;;16.15;;
23670;SDS011;12012;51.998;7.614;2023-03-21T01:23:05;35.88;;;18.05;;
23670;SDS011;12012;51.998;7.614;2023-03-21T01:25:31;30.08;;;16.70;;
23670;SDS011;12012;51.998;7.614;2023-03-21T01:27:57;35.67;;;17.63;;
23670;SDS011;12012;51.998;7.614;2023-03-21T01:30:23;34.38;;;17.15;;
23670;SDS011;12012;51.998;7.614;2023-03-21T01:32:48;32.88;;;16.50;;
23670;SDS011;12012;51.998;7.614;2023-03-21T01:35:14;32.45;;;17.42;;
23670;SDS011;12012;51.998;7.614;2023-03-21T01:37:40;34.85;;;17.00;;
23670;SDS011;12012;51.998;7.614;2023-03-21T01:40:05;35.80;;;18.48;;
23670;SDS011;12012;51.998;7.614;2023-03-21T01:42:37;34.22;;;18.13;;
23670;SDS011;12012;51.998;7.614;2023-03-21T01:45:05;36.45;;;18.88;;
23670;SDS011;12012;51.998;7.614;2023-03-21T01:47:51;37.20;;;19.38;;
23670;SDS011;12012;51.998;7.614;2023-03-21T01:50:16;31.27;;;18.90;;
23670;SDS011;12012;51.998;7.614;2023-03-21T01:52:46;32.28;;;17.80;;
23670;SDS011;12012;51.998;7.614;2023-03-21T01:55:14;36.95;;;20.55;;
23670;SDS011;12012;51.998;7.614;2023-03-21T01:57:42;32.65;;;19.38;;
23670;SDS011;12012;51.998;7.614;2023-03-21T02:00:11;34.17;;;19.77;;
23670;SDS011;12012;51.998;7.614;2023-03-21T02:02:40;35.28;;;20.00;;
23670;SDS011;12012;51.998;7.614;2023-03-21T02:05:32;35.83;;;19.25;;
23670;SDS011;12012;51.998;7.614;2023-03-21T02:08:01;37.00;;;18.95;;
23670;SDS011;12012;51.998;7.614;2023-03-21T02:10:27;32.63;;;17.52;;
23670;SDS011;12012;51.998;7.614;2023-03-21T02:12:55;39.05;;;21.17;;
23670;SDS011;12012;51.998;7.614;2023-03-21T02:15:22;39.38;;;21.27;;
23670;SDS011;12012;51.998;7.614;2023-03-21T02:17:55;32.58;;;18.27;;
23670;SDS011;12012;51.998;7.614;2023-03-21T02:20:32;38.97;;;20.52;;
23670;SDS011;12012;51.998;7.614;2023-03-21T02:23:25;35.28;;;18.75;;
23670;SDS011;12012;51.998;7.614;2023-03-21T02:28:39;33.88;;;19.88;;
23670;SDS011;12012;51.998;7.614;2023-03-21T02:31:13;37.30;;;21.05;;
23670;SDS011;12012;51.998;7.614;2023-03-21T02:36:47;27.33;;;17.13;;
23670;SDS011;12012;51.998;7.614;2023-03-21T02:42:20;37.75;;;19.40;;
23670;SDS011;12012;51.998;7.614;2023-03-21T02:45:02;39.22;;;20.35;;
23670;SDS011;12012;51.998;7.614;2023-03-21T02:47:33;36.72;;;20.08;;
23670;SDS011;12012;51.998;7.614;2023-03-21T02:52:32;35.00;;;19.65;;
23670;SDS011;12012;51.998;7.614;2023-03-21T02:55:00;37.05;;;19.00;;
23670;SDS011;12012;51.998;7.614;2023-03-21T02:57:29;34.47;;;18.58;;
23670;SDS011;12012;51.998;7.614;2023-03-21T02:59:54;38.38;;;19.27;;
23670;SDS011;12012;51.998;7.614;2023-03-21T03:02:22;35.13;;;18.90;;
23670;SDS011;12012;51.998;7.614;2023-03-21T03:04:51;35.83;;;18.00;;
23670;SDS011;12012;51.998;7.614;2023-03-21T03:07:23;31.80;;;17.05;;
23670;SDS011;12012;51.998;7.614;2023-03-21T03:29:05;35.10;;;16.67;;
23670;SDS011;12012;51.998;7.614;2023-03-21T03:31:35;34.30;;;18.65;;
23670;SDS011;12012;51.998;7.614;2023-03-21T03:34:06;36.42;;;19.33;;
23670;SDS011;12012;51.998;7.614;2023-03-21T03:39:06;41.03;;;21.13;;
23670;SDS011;12012;51.998;7.614;2023-03-21T03:41:36;43.90;;;22.45;;
23670;SDS011;12012;51.998;7.614;2023-03-21T03:44:07;43.53;;;20.65;;
23670;SDS011;12012;51.998;7.614;2023-03-21T03:46:38;45.22;;;22.70;;
23670;SDS011;12012;51.998;7.614;2023-03-21T03:49:16;39.17;;;22.03;;
23670;SDS011;12012;51.998;7.614;2023-03-21T03:54:18;38.60;;;20.50;;
23670;SDS011;12012;51.998;7.614;2023-03-21T03:56:48;42.85;;;23.17;;
23670;SDS011;12012;51.998;7.614;2023-03-21T03:59:14;45.00;;;24.45;;
23670;SDS011;12012;51.998;7.614;2023-03-21T04:01:45;45.55;;;23.17;;
23670;SDS011;12012;51.998;7.614;2023-03-21T04:04:11;46.28;;;24.30;;
23670;SDS011;12012;51.998;7.614;2023-03-21T04:06:41;42.42;;;23.55;;
23670;SDS011;12012;51.998;7.614;2023-03-21T04:09:09;38.85;;;23.38;;
23670;SDS011;12012;51.998;7.614;2023-03-21T04:11:35;47.28;;;24.75;;
23670;SDS011;12012;51.998;7.614;2023-03-21T04:14:01;40.15;;;22.42;;
23670;SDS011;12012;51.998;7.614;2023-03-21T04:16:26;37.05;;;21.98;;
23670;SDS011;12012;51.998;7.614;2023-03-21T04:18:55;33.70;;;20.90;;
23670;SDS011;12012;51.998;7.614;2023-03-21T04:21:20;46.97;;;24.52;;
23670;SDS011;12012;51.998;7.614;2023-03-21T04:23:46;46.90;;;24.13;;
23670;SDS011;12012;51.998;7.614;2023-03-21T04:26:11;44.40;;;24.80;;
23670;SDS011;12012;51.998;7.614;2023-03-21T04:28:37;40.83;;;22.67;;
23670;SDS011;12012;51.998;7.614;2023-03-21T04:31:04;41.20;;;23.75;;
23670;SDS011;12012;51.998;7.614;2023-03-21T04:33:30;42.33;;;21.00;;
23670;SDS011;12012;51.998;7.614;2023-03-21T04:35:56;39.28;;;22.27;;
23670;SDS011;12012;51.998;7.614;2023-03-21T04:38:23;35.75;;;20.17;;
23670;SDS011;12012;51.998;7.614;2023-03-21T04:40:50;46.17;;;23.90;;
23670;SDS011;12012;51.998;7.614;2023-03-21T04:43:16;38.65;;;21.05;;
23670;SDS011;12012;51.998;7.614;2023-03-21T04:45:42;42.92;;;23.30;;
23670;SDS011;12012;51.998;7.614;2023-03-21T04:48:08;33.45;;;19.27;;
23670;SDS011;12012;51.998;7.614;2023-03-21T04:50:33;41.85;;;21.63;;
23670;SDS011;12012;51.998;7.614;2023-03-21T04:52:59;42.85;;;25.00;;
23670;SDS011;12012;51.998;7.614;2023-03-21T04:55:24;45.42;;;23.75;;
23670;SDS011;12012;51.998;7.614;2023-03-21T04:57:51;42.63;;;24.23;;
23670;SDS011;12012;51.998;7.614;2023-03-21T05:00:17;37.70;;;22.02;;
23670;SDS011;12012;51.998;7.614;2023-03-21T05:02:43;39.97;;;22.13;;
23670;SDS011;12012;51.998;7.614;2023-03-21T05:05:09;44.83;;;22.80;;
23670;SDS011;12012;51.998;7.614;2023-03-21T05:07:36;41.42;;;23.15;;
23670;SDS011;12012;51.998;7.614;2023-03-21T05:10:04;46.92;;;25.05;;
23670;SDS011;12012;51.998;7.614;2023-03-21T05:12:30;42.05;;;22.42;;
23670;SDS011;12012;51.998;7.614;2023-03-21T05:14:56;37.88;;;21.75;;
23670;SDS011;12012;51.998;7.614;2023-03-21T05:17:21;45.00;;;22.63;;
23670;SDS011;12012;51.998;7.614;2023-03-21T05:19:48;43.95;;;24.00;;
23670;SDS011;12012;51.998;7.614;2023-03-21T05:22:16;45.47;;;23.95;;
23670;SDS011;12012;51.998;7.614;2023-03-21T05:24:43;41.88;;;21.60;;
23670;SDS011;12012;51.998;7.614;2023-03-21T05:27:14;42.80;;;21.65;;
23670;SDS011;12012;51.998;7.614;2023-03-21T05:30:04;40.40;;;22.33;;
23670;SDS011;12012;51.998;7.614;2023-03-21T05:32:30;38.40;;;22.42;;
23670;SDS011;12012;51.998;7.614;2023-03-21T05:34:55;44.78;;;24.92;;
23670;SDS011;12012;51.998;7.614;2023-03-21T05:37:21;38.45;;;23.02;;
23670;SDS011;12012;51.998;7.614;2023-03-21T05:39:47;41.97;;;24.30;;
23670;SDS011;12012;51.998;7.614;2023-03-21T05:42:13;42.17;;;22.55;;
23670;SDS011;12012;51.998;7.614;2023-03-21T05:44:38;37.78;;;21.90;;
23670;SDS011;12012;51.998;7.614;2023-03-21T05:47:07;43.17;;;23.92;;
23670;SDS011;12012;51.998;7.614;2023-03-21T05:49:32;42.05;;;22.35;;
23670;SDS011;12012;51.998;7.614;2023-03-21T05:51:58;46.60;;;23.95;;
23670;SDS011;12012;51.998;7.614;2023-03-21T05:54:23;42.30;;;24.02;;
23670;SDS011;12012;51.998;7.614;2023-03-21T05:56:49;48.70;;;24.95;;
23670;SDS011;12012;51.998;7.614;2023-03-21T05:59:14;41.25;;;22.52;;
23670;SDS011;12012;51.998;7.614;2023-03-21T06:01:40;44.45;;;24.00;;
23670;SDS011;12012;51.998;7.614;2023-03-21T06:04:06;40.92;;;24.17;;
23670;SDS011;12012;51.998;7.614;2023-03-21T06:06:32;41.55;;;22.88;;
23670;SDS011;12012;51.998;7.614;2023-03-21T06:08:57;45.50;;;24.90;;
23670;SDS011;12012;51.998;7.614;2023-03-21T06:11:25;46.08;;;24.90;;
23670;SDS011;12012;51.998;7.614;2023-03-21T06:16:20;37.58;;;22.38;;
23670;SDS011;12012;51.998;7.614;2023-03-21T06:18:46;38.60;;;21.88;;
23670;SDS011;12012;51.998;7.614;2023-03-21T06:21:11;41.83;;;23.92;;
23670;SDS011;12012;51.998;7.614;2023-03-21T06:23:37;42.90;;;23.50;;
23670;SDS011;12012;51.998;7.614;2023-03-21T06:26:03;39.97;;;22.55;;
23670;SDS011;12012;51.998;7.614;2023-03-21T06:28:29;35.15;;;20.20;;
23670;SDS011;12012;51.998;7.614;2023-03-21T06:31:04;44.72;;;21.63;;
23670;SDS011;12012;51.998;7.614;2023-03-21T06:33:30;48.17;;;21.95;;
23670;SDS011;12012;51.998;7.614;2023-03-21T06:35:56;37.42;;;21.42;;
23670;SDS011;12012;51.998;7.614;2023-03-21T06:38:23;37.10;;;21.42;;
23670;SDS011;12012;51.998;7.614;2023-03-21T06:40:49;38.47;;;20.42;;
23670;SDS011;12012;51.998;7.614;2023-03-21T06:43:15;40.33;;;21.67;;
23670;SDS011;12012;51.998;7.614;2023-03-21T06:45:41;37.97;;;20.67;;
23670;SDS011;12012;51.998;7.614;2023-03-21T06:48:07;37.65;;;19.70;;
23670;SDS011;12012;51.998;7.614;2023-03-21T06:50:33;36.92;;;20.17;;
23670;SDS011;12012;51.998;7.614;2023-03-21T06:52:58;32.88;;;17.95;;
23670;SDS011;12012;51.998;7.614;2023-03-21T06:55:24;32.75;;;18.00;;
23670;SDS011;12012;51.998;7.614;2023-03-21T06:57:52;46.22;;;20.70;;
23670;SDS011;12012;51.998;7.614;2023-03-21T07:00:19;38.92;;;20.02;;
23670;SDS011;12012;51.998;7.614;2023-03-21T07:02:45;38.03;;;20.75;;
23670;SDS011;12012;51.998;7.614;2023-03-21T07:05:11;31.35;;;17.33;;
23670;SDS011;12012;51.998;7.614;2023-03-21T07:07:37;39.15;;;20.42;;
23670;SDS011;12012;51.998;7.614;2023-03-21T07:10:03;39.30;;;19.70;;
23670;SDS011;12012;51.998;7.614;2023-03-21T07:12:29;33.92;;;17.98;;
23670;SDS011;12012;51.998;7.614;2023-03-21T07:14:58;37.03;;;18.13;;
23670;SDS011;12012;51.998;7.614;2023-03-21T07:17:24;46.67;;;20.88;;
23670;SDS011;12012;51.998;7.614;2023-03-21T07:19:50;35.28;;;18.63;;
23670;SDS011;12012;51.998;7.614;2023-03-21T07:22:16;39.85;;;18.67;;
23670;SDS011;12012;51.998;7.614;2023-03-21T07:24:42;28.33;;;16.17;;
23670;SDS011;12012;51.998;7.614;2023-03-21T07:27:08;39.63;;;21.02;;
23670;SDS011;12012;51.998;7.614;2023-03-21T07:29:33;30.23;;;17.52;;
23670;SDS011;12012;51.998;7.614;2023-03-21T07:31:59;36.15;;;18.23;;
23670;SDS011;12012;51.998;7.614;2023-03-21T07:34:25;38.10;;;19.60;;
23670;SDS011;12012;51.998;7.614;2023-03-21T07:36:55;35.03;;;17.13;;
23670;SDS011;12012;51.998;7.614;2023-03-21T07:39:21;31.35;;;17.95;;
23670;SDS011;12012;51.998;7.614;2023-03-21T07:41:47;36.67;;;19.02;;
23670;SDS011;12012;51.998;7.614;2023-03-21T07:44:13;35.60;;;20.27;;
23670;SDS011;12012;51.998;7.614;2023-03-21T07:46:39;31.48;;;18.40;;
23670;SDS011;12012;51.998;7.614;2023-03-21T07:49:05;31.23;;;18.02;;
23670;SDS011;12012;51.998;7.614;2023-03-21T07:51:32;43.13;;;20.80;;
23670;SDS011;12012;51.998;7.614;2023-03-21T07:53:59;33.70;;;17.70;;
23670;SDS011;12012;51.998;7.614;2023-03-21T07:56:26;36.65;;;18.25;;
23670;SDS011;12012;51.998;7.614;2023-03-21T07:58:52;33.85;;;17.40;;
23670;SDS011;12012;51.998;7.614;2023-03-21T08:01:17;38.55;;;18.90;;
23670;SDS011;12012;51.998;7.614;2023-03-21T08:03:43;33.03;;;17.65;;
23670;SDS011;12012;51.998;7.614;2023-03-21T08:06:09;35.67;;;18.70;;
23670;SDS011;12012;51.998;7.614;2023-03-21T08:08:35;32.05;;;17.67;;
23670;SDS011;12012;51.998;7.614;2023-03-21T08:11:02;34.80;;;18.98;;
23670;SDS011;12012;51.998;7.614;2023-03-21T08:13:28;35.33;;;16.45;;
23670;SDS011;12012;51.998;7.614;2023-03-21T08:15:53;32.70;;;17.08;;
23670;SDS011;12012;51.998;7.614;2023-03-21T08:18:19;34.58;;;17.38;;
23670;SDS011;12012;51.998;7.614;2023-03-21T08:20:45;37.15;;;17.50;;
23670;SDS011;12012;51.998;7.614;2023-03-21T08:23:19;26.70;;;15.65;;
23670;SDS011;12012;51.998;7.614;2023-03-21T08:25:49;34.33;;;18.67;;
23670;SDS011;12012;51.998;7.614;2023-03-21T08:28:15;32.33;;;16.67;;
23670;SDS011;12012;51.998;7.614;2023-03-21T08:30:41;32.53;;;17.55;;
23670;SDS011;12012;51.998;7.614;2023-03-21T08:33:07;38.15;;;18.80;;
23670;SDS011;12012;51.998;7.614;2023-03-21T08:35:33;29.38;;;16.45;;
23670;SDS011;12012;51.998;7.614;2023-03-21T08:38:01;38.67;;;19.35;;
23670;SDS011;12012;51.998;7.614;2023-03-21T08:40:27;33.83;;;17.08;;
23670;SDS011;12012;51.998;7.614;2023-03-21T08:42:53;35.50;;;17.75;;
23670;SDS011;12012;51.998;7.614;2023-03-21T08:45:19;34.85;;;17.15;;
23670;SDS011;12012;51.998;7.614;2023-03-21T08:47:45;27.20;;;15.85;;
23670;SDS011;12012;51.998;7.614;2023-03-21T08:50:12;36.47;;;17.85;;
23670;SDS011;12012;51.998;7.614;2023-03-21T08:52:42;37.60;;;17.52;;
23670;SDS011;12012;51.998;7.614;2023-03-21T08:55:08;33.97;;;17.38;;
23670;SDS011;12012;51.998;7.614;2023-03-21T08:57:35;35.60;;;18.20;;
23670;SDS011;12012;51.998;7.614;2023-03-21T09:00:01;34.25;;;16.13;;
23670;SDS011;12012;51.998;7.614;2023-03-21T09:02:31;31.33;;;17.08;;
23670;SDS011;12012;51.998;7.614;2023-03-21T09:04:57;33.00;;;17.35;;
23670;SDS011;12012;51.998;7.614;2023-03-21T09:07:23;31.05;;;15.73;;
23670;SDS011;12012;51.998;7.614;2023-03-21T09:09:50;32.67;;;16.52;;
23670;SDS011;12012;51.998;7.614;2023-03-21T09:12:17;31.50;;;16.65;;
23670;SDS011;12012;51.998;7.614;2023-03-21T09:14:43;29.08;;;15.68;;
23670;SDS011;12012;51.998;7.614;2023-03-21T09:17:09;31.58;;;15.82;;
23670;SDS011;12012;51.998;7.614;2023-03-21T09:19:35;25.67;;;14.38;;
23670;SDS011;12012;51.998;7.614;2023-03-21T09:22:02;26.13;;;13.45;;
23670;SDS011;12012;51.998;7.614;2023-03-21T09:24:28;28.75;;;15.73;;
23670;SDS011;12012;51.998;7.614;2023-03-21T09:26:55;28.30;;;14.30;;
23670;SDS011;12012;51.998;7.614;2023-03-21T09:29:21;27.70;;;14.10;;
23670;SDS011;12012;51.998;7.614;2023-03-21T09:31:47;27.90;;;14.30;;
23670;SDS011;12012;51.998;7.614;2023-03-21T09:34:12;27.48;;;13.98;;
23670;SDS011;12012;51.998;7.614;2023-03-21T09:36:41;29.25;;;14.25;;
23670;SDS011;12012;51.998;7.614;2023-03-21T09:39:08;33.35;;;14.20;;
23670;SDS011;12012;51.998;7.614;2023-03-21T09:42:17;30.23;;;15.63;;
23670;SDS011;12012;51.998;7.614;2023-03-21T09:49:46;27.60;;;14.32;;
23670;SDS011;12012;51.998;7.614;2023-03-21T09:52:21;27.00;;;14.38;;
23670;SDS011;12012;51.998;7.614;2023-03-21T09:54:53;29.55;;;14.05;;
23670;SDS011;12012;51.998;7.614;2023-03-21T09:59:51;25.52;;;13.15;;
23670;SDS011;12012;51.998;7.614;2023-03-21T10:07:41;26.67;;;13.27;;
23670;SDS011;12012;51.998;7.614;2023-03-21T10:10:16;25.45;;;13.13;;
23670;SDS011;12012;51.998;7.614;2023-03-21T10:12:51;24.98;;;13.40;;
23670;SDS011;12012;51.998;7.614;2023-03-21T10:15:19;25.52;;;13.70;;
23670;SDS011;12012;51.998;7.614;2023-03-21T10:17:47;22.23;;;12.95;;
23670;SDS011;12012;51.998;7.614;2023-03-21T10:20:22;24.10;;;13.35;;
23670;SDS011;12012;51.998;7.614;2023-03-21T10:22:51;21.98;;;11.88;;
23670;SDS011;12012;51.998;7.614;2023-03-21T10:25:20;27.42;;;13.85;;
23670;SDS011;12012;51.998;7.614;2023-03-21T10:27:48;25.13;;;12.35;;
23670;SDS011;12012;51.998;7.614;2023-03-21T10:30:59;23.85;;;12.25;;
23670;SDS011;12012;51.998;7.614;2023-03-21T10:33:13;26.92;;;13.07;;
23670;SDS011;12012;51.998;7.614;2023-03-21T10:35:43;27.33;;;13.23;;
23670;SDS011;12012;51.998;7.614;2023-03-21T10:38:17;26.90;;;13.82;;
23670;SDS011;12012;51.998;7.614;2023-03-21T10:45:51;25.50;;;13.77;;
23670;SDS011;12012;51.998;7.614;2023-03-21T10:48:18;27.40;;;13.02;;
23670;SDS011;12012;51.998;7.614;2023-03-21T10:50:45;20.42;;;12.10;;
23670;SDS011;12012;51.998;7.614;2023-03-21T10:53:15;22.00;;;13.15;;
23670;SDS011;12012;51.998;7.614;2023-03-21T10:55:45;28.08;;;13.82;;
23670;SDS011;12012;51.998;7.614;2023-03-21T10:58:26;23.17;;;12.65;;
23670;SDS011;12012;51.998;7.614;2023-03-21T11:00:59;23.35;;;13.23;;
23670;SDS011;12012;51.998;7.614;2023-03-21T11:05:55;25.52;;;12.05;;
23670;SDS011;12012;51.998;7.614;2023-03-21T11:08:29;24.20;;;12.65;;
23670;SDS011;12012;51.998;7.614;2023-03-21T11:13:41;26.08;;;12.82;;
23670;SDS011;12012;51.998;7.614;2023-03-21T11:18:42;22.48;;;13.27;;
23670;SDS011;12012;51.998;7.614;2023-03-21T11:21:14;21.95;;;12.52;;
23670;SDS011;12012;51.998;7.614;2023-03-21T11:23:41;25.77;;;13.70;;
23670;SDS011;12012;51.998;7.614;2023-03-21T11:26:14;22.98;;;13.52;;
23670;SDS011;12012;51.998;7.614;2023-03-21T11:28:47;27.42;;;14.02;;
23670;SDS011;12012;51.998;7.614;2023-03-21T11:31:15;25.50;;;14.32;;
23670;SDS011;12012;51.998;7.614;2023-03-21T11:33:42;22.40;;;13.05;;
23670;SDS011;12012;51.998;7.614;2023-03-21T11:38:43;25.65;;;14.93;;
23670;SDS011;12012;51.998;7.614;2023-03-21T11:44:28;22.52;;;14.45;;
23670;SDS011;12012;51.998;7.614;2023-03-21T11:46:58;25.15;;;14.18;;
23670;SDS011;12012;51.998;7.614;2023-03-21T11:49:25;28.27;;;14.73;;
23670;SDS011;12012;51.998;7.614;2023-03-21T11:52:03;20.23;;;14.10;;
23670;SDS011;12012;51.998;7.614;2023-03-21T11:57:23;19.42;;;13.88;;
23670;SDS011;12012;51.998;7.614;2023-03-21T12:02:52;21.60;;;13.18;;
23670;SDS011;12012;51.998;7.614;2023-03-21T12:06:10;23.00;;;13.40;;
23670;SDS011;12012;51.998;7.614;2023-03-21T12:08:48;29.83;;;14.13;;
23670;SDS011;12012;51.998;7.614;2023-03-21T12:11:33;21.05;;;14.10;;
23670;SDS011;12012;51.998;7.614;2023-03-21T12:19:38;23.98;;;14.10;;
23670;SDS011;12012;51.998;7.614;2023-03-21T12:22:23;23.90;;;12.85;;
23670;SDS011;12012;51.998;7.614;2023-03-21T12:25:04;21.63;;;13.85;;
23670;SDS011;12012;51.998;7.614;2023-03-21T12:27:45;24.65;;;14.93;;
23670;SDS011;12012;51.998;7.614;2023-03-21T12:30:37;20.48;;;13.05;;
23670;SDS011;12012;51.998;7.614;2023-03-21T12:33:33;18.75;;;11.98;;
23670;SDS011;12012;51.998;7.614;2023-03-21T12:36:21;19.10;;;11.75;;
23670;SDS011;12012;51.998;7.614;2023-03-21T12:41:58;18.38;;;13.02;;
23670;SDS011;12012;51.998;7.614;2023-03-21T12:44:49;23.00;;;11.80;;
23670;SDS011;12012;51.998;7.614;2023-03-21T12:47:22;20.50;;;10.82;;
23670;SDS011;12012;51.998;7.614;2023-03-21T12:49:53;18.17;;;10.63;;
23670;SDS011;12012;51.998;7.614;2023-03-21T12:52:34;18.40;;;9.48;;
23670;SDS011;12012;51.998;7.614;2023-03-21T12:55:15;16.60;;;9.68;;
23670;SDS011;12012;51.998;7.614;2023-03-21T12:57:48;14.15;;;8.52;;
23670;SDS011;12012;51.998;7.614;2023-03-21T13:03:03;11.23;;;8.18;;
23670;SDS011;12012;51.998;7.614;2023-03-21T13:08:22;12.82;;;7.47;;
23670;SDS011;12012;51.998;7.614;2023-03-21T13:10:51;12.73;;;6.95;;
23670;SDS011;12012;51.998;7.614;2023-03-21T13:13:21;15.57;;;6.82;;
23670;SDS011;12012;51.998;7.614;2023-03-21T13:16:34;14.55;;;6.20;;
23670;SDS011;12012;51.998;7.614;2023-03-21T13:19:04;11.57;;;6.30;;
23670;SDS011;12012;51.998;7.614;2023-03-21T13:24:18;10.45;;;6.43;;
23670;SDS011;12012;51.998;7.614;2023-03-21T13:27:03;16.15;;;7.80;;
23670;SDS011;12012;51.998;7.614;2023-03-21T13:35:21;13.40;;;7.65;;
23670;SDS011;12012;51.998;7.614;2023-03-21T13:37:43;13.85;;;7.00;;
23670;SDS011;12012;51.998;7.614;2023-03-21T13:40:25;13.32;;;7.63;;
23670;SDS011;12012;51.998;7.614;2023-03-21T13:42:57;15.40;;;7.13;;
23670;SDS011;12012;51.998;7.614;2023-03-21T13:45:33;14.05;;;6.97;;
23670;SDS011;12012;51.998;7.614;2023-03-21T13:48:29;14.43;;;6.38;;
23670;SDS011;12012;51.998;7.614;2023-03-21T13:51:04;15.80;;;7.22;;
23670;SDS011;12012;51.998;7.614;2023-03-21T13:53:37;9.60;;;6.55;;
23670;SDS011;12012;51.998;7.614;2023-03-21T14:04:03;8.73;;;5.72;;
23670;SDS011;12012;51.998;7.614;2023-03-21T14:06:43;11.98;;;6.45;;
23670;SDS011;12012;51.998;7.614;2023-03-21T14:09:39;10.05;;;6.10;;
23670;SDS011;12012;51.998;7.614;2023-03-21T14:12:10;8.65;;;4.97;;
23670;SDS011;12012;51.998;7.614;2023-03-21T14:14:41;8.38;;;5.18;;
23670;SDS011;12012;51.998;7.614;2023-03-21T14:17:23;8.95;;;5.40;;
23670;SDS011;12012;51.998;7.614;2023-03-21T14:19:54;13.50;;;5.97;;
23670;SDS011;12012;51.998;7.614;2023-03-21T14:22:23;14.38;;;6.00;;
23670;SDS011;12012;51.998;7.614;2023-03-21T14:24:56;11.80;;;5.45;;
23670;SDS011;12012;51.998;7.614;2023-03-21T14:27:23;9.30;;;5.47;;
23670;SDS011;12012;51.998;7.614;2023-03-21T14:29:52;11.20;;;5.38;;
23670;SDS011;12012;51.998;7.614;2023-03-21T14:32:21;13.00;;;5.18;;
23670;SDS011;12012;51.998;7.614;2023-03-21T14:34:49;8.73;;;4.50;;
23670;SDS011;12012;51.998;7.614;2023-03-21T14:37:32;7.47;;;4.47;;
23670;SDS011;12012;51.998;7.614;2023-03-21T14:40:03;8.80;;;4.80;;
23670;SDS011;12012;51.998;7.614;2023-03-21T14:42:36;9.35;;;4.28;;
23670;SDS011;12012;51.998;7.614;2023-03-21T14:47:59;8.60;;;4.10;;
23670;SDS011;12012;51.998;7.614;2023-03-21T14:50:47;11.43;;;4.60;;
23670;SDS011;12012;51.998;7.614;2023-03-21T14:53:24;8.45;;;3.83;;
23670;SDS011;12012;51.998;7.614;2023-03-21T14:58:22;10.52;;;4.30;;
23670;SDS011;12012;51.998;7.614;2023-03-21T15:00:49;9.07;;;3.75;;
23670;SDS011;12012;51.998;7.614;2023-03-21T15:03:18;9.30;;;4.70;;
23670;SDS011;12012;51.998;7.614;2023-03-21T15:05:46;9.43;;;4.30;;
23670;SDS011;12012;51.998;7.614;2023-03-21T15:08:12;9.30;;;3.97;;
23670;SDS011;12012;51.998;7.614;2023-03-21T15:10:40;11.10;;;4.35;;
23670;SDS011;12012;51.998;7.614;2023-03-21T15:13:18;8.57;;;4.15;;
23670;SDS011;12012;51.998;7.614;2023-03-21T15:15:46;6.80;;;4.22;;
23670;SDS011;12012;51.998;7.614;2023-03-21T15:18:17;9.65;;;4.60;;
23670;SDS011;12012;51.998;7.614;2023-03-21T15:20:49;9.82;;;4.30;;
23670;SDS011;12012;51.998;7.614;2023-03-21T15:23:21;5.40;;;3.88;;
23670;SDS011;12012;51.998;7.614;2023-03-21T15:25:57;8.40;;;4.07;;
23670;SDS011;12012;51.998;7.614;2023-03-21T15:28:27;5.85;;;3.65;;
23670;SDS011;12012;51.998;7.614;2023-03-21T15:30:52;8.73;;;4.22;;
23670;SDS011;12012;51.998;7.614;2023-03-21T15:33:18;7.07;;;4.07;;
23670;SDS011;12012;51.998;7.614;2023-03-21T15:35:51;7.45;;;4.15;;
23670;SDS011;12012;51.998;7.614;2023-03-21T15:38:27;9.77;;;4.50;;
23670;SDS011;12012;51.998;7.614;2023-03-21T15:41:12;7.15;;;4.15;;
23670;SDS011;12012;51.998;7.614;2023-03-21T15:43:42;8.32;;;3.95;;
23670;SDS011;12012;51.998;7.614;2023-03-21T15:46:14;5.78;;;4.20;;
23670;SDS011;12012;51.998;7.614;2023-03-21T15:48:41;8.68;;;4.40;;
23670;SDS011;12012;51.998;7.614;2023-03-21T15:51:19;8.40;;;3.85;;
23670;SDS011;12012;51.998;7.614;2023-03-21T15:53:47;5.43;;;3.70;;
23670;SDS011;12012;51.998;7.614;2023-03-21T15:56:17;7.95;;;3.88;;
23670;SDS011;12012;51.998;7.614;2023-03-21T15:58:47;6.03;;;4.20;;
23670;SDS011;12012;51.998;7.614;2023-03-21T16:03:46;9.40;;;4.32;;
23670;SDS011;12012;51.998;7.614;2023-03-21T16:06:22;8.18;;;3.83;;
23670;SDS011;12012;51.998;7.614;2023-03-21T16:14:19;5.63;;;3.58;;
23670;SDS011;12012;51.998;7.614;2023-03-21T16:16:46;8.10;;;4.07;;
23670;SDS011;12012;51.998;7.614;2023-03-21T16:19:13;7.50;;;4.10;;
23670;SDS011;12012;51.998;7.614;2023-03-21T16:21:39;8.95;;;4.30;;
23670;SDS011;12012;51.998;7.614;2023-03-21T16:24:06;6.13;;;3.97;;
23670;SDS011;12012;51.998;7.614;2023-03-21T16:26:33;6.13;;;3.90;;
23670;SDS011;12012;51.998;7.614;2023-03-21T16:29:06;7.90;;;4.28;;
23670;SDS011;12012;51.998;7.614;2023-03-21T16:31:33;8.35;;;4.10;;
23670;SDS011;12012;51.998;7.614;2023-03-21T16:34:00;8.73;;;4.57;;
23670;SDS011;12012;51.998;7.614;2023-03-21T16:36:29;5.85;;;3.83;;
23670;SDS011;12012;51.998;7.614;2023-03-21T16:38:57;10.40;;;4.65;;
23670;SDS011;12012;51.998;7.614;2023-03-21T16:41:23;9.15;;;4.30;;